Time;durP1;ratioP1;P1;durP2;ratioP2;P2;SDS_P1;SDS_P2;PMS_P1;PMS_P2;Temp;Humidity;BMP_temperature;BMP_pressure;BME280_temperature;BME280_humidity;BME280_pressure;Samples;Min_cycle;Max_cycle;Signal;HPM_P1;HPM_P2
2023/03/19 00:00:42;;;;;;;90.55;16.45;;;;;;;;;;4923721;29;20425;-48
2023/03/19 00:03:09;;;;;;;127.88;18.45;;;;;;;;;;4923058;29;20064;-48
2023/03/19 00:05:35;;;;;;;67.22;16.20;;;;;;;;;;4922048;29;20472;-48
2023/03/19 00:08:02;;;;;;;72.80;15.77;;;;;;;;;;4918229;29;20044;-48
2023/03/19 00:10:28;;;;;;;99.68;18.05;;;;;;;;;;4926338;29;20057;-50
2023/03/19 00:12:55;;;;;;;99.18;17.92;;;;;;;;;;4920180;29;20036;-48
2023/03/19 00:15:21;;;;;;;70.50;16.45;;;;;;;;;;4920200;29;20110;-47
2023/03/19 00:17:48;;;;;;;96.45;17.40;;;;;;;;;;4922012;29;20051;-47
2023/03/19 00:20:14;;;;;;;64.90;14.52;;;;;;;;;;4936574;29;20095;-47
2023/03/19 00:22:41;;;;;;;80.13;16.20;;;;;;;;;;4917509;29;20047;-49
2023/03/19 00:25:08;;;;;;;107.47;17.80;;;;;;;;;;4924471;29;20039;-50
2023/03/19 00:27:36;;;;;;;72.13;14.85;;;;;;;;;;4922946;29;20070;-49
2023/03/19 00:30:04;;;;;;;91.53;16.23;;;;;;;;;;4922414;29;20788;-47
2023/03/19 00:32:32;;;;;;;152.00;20.83;;;;;;;;;;4915804;29;20079;-65
2023/03/19 00:34:59;;;;;;;67.68;15.15;;;;;;;;;;4921722;29;20036;-65
2023/03/19 00:37:26;;;;;;;54.05;13.93;;;;;;;;;;4916831;29;20041;-65
2023/03/19 00:39:53;;;;;;;101.78;16.27;;;;;;;;;;4922136;29;20044;-65
2023/03/19 00:42:20;;;;;;;60.72;14.90;;;;;;;;;;4923615;29;20070;-65
2023/03/19 00:44:47;;;;;;;72.03;17.27;;;;;;;;;;4923496;29;20078;-65
2023/03/19 00:47:13;;;;;;;86.65;15.65;;;;;;;;;;4924698;29;20982;-65
2023/03/19 00:49:40;;;;;;;78.15;15.02;;;;;;;;;;4919974;29;20592;-65
2023/03/19 00:52:07;;;;;;;52.38;13.43;;;;;;;;;;4918719;29;20047;-65
2023/03/19 00:54:33;;;;;;;93.05;16.27;;;;;;;;;;4938184;29;20576;-65
2023/03/19 00:57:00;;;;;;;85.90;16.50;;;;;;;;;;4923962;29;20040;-66
2023/03/19 00:59:27;;;;;;;58.65;14.10;;;;;;;;;;4919412;29;20059;-65
2023/03/19 01:01:54;;;;;;;96.80;16.45;;;;;;;;;;4936160;29;20048;-65
2023/03/19 01:04:22;;;;;;;56.25;13.63;;;;;;;;;;4927800;29;20040;-66
2023/03/19 01:06:49;;;;;;;106.22;17.40;;;;;;;;;;4918297;29;20044;-65
2023/03/19 01:09:15;;;;;;;111.35;17.70;;;;;;;;;;4920424;29;20142;-65
2023/03/19 01:11:42;;;;;;;77.07;15.90;;;;;;;;;;4923880;29;20371;-65
2023/03/19 01:14:08;;;;;;;64.72;14.40;;;;;;;;;;4920478;29;20032;-65
2023/03/19 01:16:35;;;;;;;89.65;15.00;;;;;;;;;;4937366;29;20071;-65
2023/03/19 01:19:02;;;;;;;52.15;13.38;;;;;;;;;;4919084;29;20040;-65
2023/03/19 01:21:29;;;;;;;58.58;13.82;;;;;;;;;;4916899;29;20561;-65
2023/03/19 01:23:56;;;;;;;86.75;16.40;;;;;;;;;;4919138;29;20050;-66
2023/03/19 01:26:24;;;;;;;72.15;14.60;;;;;;;;;;4920348;29;20458;-65
2023/03/19 01:28:56;;;;;;;89.72;15.93;;;;;;;;;;4925053;29;20040;-65
2023/03/19 01:31:24;;;;;;;94.85;15.43;;;;;;;;;;4925732;29;20102;-65
2023/03/19 01:34:13;;;;;;;89.93;15.55;;;;;;;;;;4864962;29;20094;-65
2023/03/19 01:36:51;;;;;;;83.43;15.05;;;;;;;;;;4850037;29;20049;-65
2023/03/19 01:39:23;;;;;;;52.78;12.98;;;;;;;;;;4837983;29;20072;-65
2023/03/19 01:41:50;;;;;;;81.10;15.43;;;;;;;;;;4866158;29;20140;-65
2023/03/19 01:44:33;;;;;;;62.13;13.25;;;;;;;;;;4849387;29;20057;-65
2023/03/19 01:47:37;;;;;;;63.17;12.95;;;;;;;;;;4862810;29;20144;-65
2023/03/19 01:50:19;;;;;;;209.05;22.85;;;;;;;;;;4863057;29;20279;-52
2023/03/19 01:52:49;;;;;;;58.15;13.43;;;;;;;;;;4860498;29;20050;-49
2023/03/19 01:55:28;;;;;;;87.45;15.25;;;;;;;;;;4847902;29;20078;-50
2023/03/19 01:58:08;;;;;;;72.25;14.50;;;;;;;;;;4833534;29;20073;-52
2023/03/19 02:00:54;;;;;;;115.53;16.48;;;;;;;;;;4866180;29;20052;-49
2023/03/19 02:03:21;;;;;;;75.30;15.70;;;;;;;;;;4865464;29;20103;-52
2023/03/19 02:05:50;;;;;;;55.92;14.52;;;;;;;;;;4850425;29;20057;-50
2023/03/19 02:08:19;;;;;;;96.68;17.02;;;;;;;;;;4863987;29;20049;-49
2023/03/19 02:10:46;;;;;;;79.45;15.00;;;;;;;;;;4886941;29;20056;-51
2023/03/19 02:13:13;;;;;;;76.35;14.50;;;;;;;;;;4922522;29;20040;-52
2023/03/19 02:15:40;;;;;;;104.85;16.88;;;;;;;;;;4920289;29;20048;-49
2023/03/19 02:18:07;;;;;;;79.30;15.45;;;;;;;;;;4940608;29;20048;-50
2023/03/19 02:20:59;;;;;;;57.42;12.95;;;;;;;;;;4943042;29;20064;-49
2023/03/19 02:23:45;;;;;;;67.47;13.43;;;;;;;;;;4924204;29;20098;-49
2023/03/19 02:26:15;;;;;;;65.32;13.70;;;;;;;;;;4923777;29;20058;-49
2023/03/19 02:28:44;;;;;;;74.03;13.57;;;;;;;;;;4920601;29;20051;-48
2023/03/19 02:31:13;;;;;;;100.22;16.02;;;;;;;;;;4926210;29;20048;-50
2023/03/19 02:33:40;;;;;;;63.45;13.77;;;;;;;;;;4921877;29;20036;-49
2023/03/19 02:36:14;;;;;;;88.38;15.65;;;;;;;;;;4923009;29;20099;-50
2023/03/19 02:38:41;;;;;;;70.10;13.63;;;;;;;;;;4920447;29;20052;-51
2023/03/19 02:41:08;;;;;;;79.20;14.02;;;;;;;;;;4923882;29;20048;-50
2023/03/19 02:43:36;;;;;;;81.60;14.98;;;;;;;;;;4924397;29;20071;-51
2023/03/19 02:46:04;;;;;;;86.18;15.57;;;;;;;;;;4921066;29;20117;-52
2023/03/19 02:48:31;;;;;;;55.13;12.50;;;;;;;;;;4927733;29;20501;-50
2023/03/19 02:50:58;;;;;;;82.53;15.20;;;;;;;;;;4923999;29;20050;-63
2023/03/19 02:53:24;;;;;;;80.15;15.55;;;;;;;;;;4916125;29;20050;-63
2023/03/19 02:55:51;;;;;;;57.70;12.43;;;;;;;;;;4924683;29;20046;-64
2023/03/19 02:58:18;;;;;;;69.22;13.85;;;;;;;;;;4922098;29;20048;-64
2023/03/19 03:00:45;;;;;;;108.03;15.82;;;;;;;;;;4917158;29;20068;-64
2023/03/19 03:03:11;;;;;;;86.82;15.15;;;;;;;;;;4923122;29;20074;-63
2023/03/19 03:05:38;;;;;;;67.13;13.73;;;;;;;;;;4926979;29;20408;-64
2023/03/19 03:08:05;;;;;;;107.88;15.65;;;;;;;;;;4922308;29;20067;-63
2023/03/19 03:10:32;;;;;;;69.03;13.90;;;;;;;;;;4922089;29;20132;-64
2023/03/19 03:13:00;;;;;;;50.75;12.90;;;;;;;;;;4923310;29;20040;-64
2023/03/19 03:15:27;;;;;;;107.72;16.40;;;;;;;;;;4923750;29;20059;-63
2023/03/19 03:17:55;;;;;;;63.50;13.32;;;;;;;;;;4924142;29;20144;-64
2023/03/19 03:20:21;;;;;;;50.92;13.23;;;;;;;;;;4921420;29;20565;-64
2023/03/19 03:22:48;;;;;;;97.30;15.20;;;;;;;;;;4917673;29;20040;-63
2023/03/19 03:25:15;;;;;;;76.47;13.98;;;;;;;;;;4919170;29;20097;-64
2023/03/19 03:27:41;;;;;;;72.72;13.57;;;;;;;;;;4920595;29;20044;-64
2023/03/19 03:30:09;;;;;;;126.50;16.85;;;;;;;;;;4924410;29;20075;-64
2023/03/19 03:32:36;;;;;;;76.38;13.48;;;;;;;;;;4923567;29;20059;-63
2023/03/19 03:35:04;;;;;;;51.70;12.18;;;;;;;;;;4921693;29;20102;-64
2023/03/19 03:37:30;;;;;;;78.15;13.98;;;;;;;;;;4922490;29;20132;-64
2023/03/19 03:39:57;;;;;;;54.33;12.73;;;;;;;;;;4918587;29;20047;-64
2023/03/19 03:42:23;;;;;;;61.63;13.20;;;;;;;;;;4924252;29;20058;-64
2023/03/19 03:44:50;;;;;;;66.65;12.55;;;;;;;;;;4923244;29;20044;-64
2023/03/19 03:47:17;;;;;;;56.20;13.10;;;;;;;;;;4936983;29;20461;-64
2023/03/19 03:49:43;;;;;;;69.32;13.60;;;;;;;;;;4921005;29;20101;-64
2023/03/19 03:52:11;;;;;;;73.97;13.45;;;;;;;;;;4923034;29;20047;-64
2023/03/19 03:54:38;;;;;;;83.97;14.07;;;;;;;;;;4917555;29;20039;-50
2023/03/19 03:57:05;;;;;;;80.35;14.00;;;;;;;;;;4922630;29;20416;-51
2023/03/19 03:59:31;;;;;;;63.40;12.77;;;;;;;;;;4920909;29;20047;-51
2023/03/19 04:01:57;;;;;;;58.78;13.43;;;;;;;;;;4925138;29;20042;-52
2023/03/19 04:04:25;;;;;;;51.00;12.20;;;;;;;;;;4926002;29;20051;-52
2023/03/19 04:06:52;;;;;;;47.70;12.30;;;;;;;;;;4920262;29;20048;-50
2023/03/19 04:09:27;;;;;;;64.47;12.63;;;;;;;;;;4915796;29;20056;-53
2023/03/19 04:11:54;;;;;;;57.13;12.45;;;;;;;;;;4912234;29;20054;-50
2023/03/19 04:14:21;;;;;;;88.10;15.45;;;;;;;;;;4938855;29;20051;-52
2023/03/19 04:16:47;;;;;;;52.08;12.40;;;;;;;;;;4920338;29;20039;-50
2023/03/19 04:19:14;;;;;;;68.70;13.23;;;;;;;;;;4935378;29;20516;-49
2023/03/19 04:21:40;;;;;;;100.13;15.02;;;;;;;;;;4922982;29;20455;-48
2023/03/19 04:24:09;;;;;;;75.68;13.07;;;;;;;;;;4919375;29;20047;-49
2023/03/19 04:26:36;;;;;;;61.00;12.80;;;;;;;;;;4920302;29;20107;-50
2023/03/19 04:29:03;;;;;;;94.53;15.18;;;;;;;;;;4919033;29;20036;-49
2023/03/19 04:31:30;;;;;;;72.85;14.13;;;;;;;;;;4922108;29;20127;-52
2023/03/19 04:33:57;;;;;;;48.08;11.40;;;;;;;;;;4921644;29;20040;-50
2023/03/19 04:36:23;;;;;;;97.32;15.65;;;;;;;;;;4936299;29;20721;-51
2023/03/19 04:38:50;;;;;;;93.32;15.02;;;;;;;;;;4938075;29;20048;-50
2023/03/19 04:41:18;;;;;;;67.28;13.05;;;;;;;;;;4920206;29;20039;-49
2023/03/19 04:43:58;;;;;;;78.97;13.13;;;;;;;;;;4917909;29;20521;-51
2023/03/19 04:46:26;;;;;;;55.88;12.80;;;;;;;;;;4921599;29;20090;-50
2023/03/19 04:48:53;;;;;;;79.63;13.77;;;;;;;;;;4927743;29;20040;-49
2023/03/19 04:51:20;;;;;;;85.57;13.98;;;;;;;;;;4922347;29;20048;-49
2023/03/19 04:53:48;;;;;;;69.10;13.38;;;;;;;;;;4921382;29;20521;-64
2023/03/19 04:56:15;;;;;;;57.15;12.80;;;;;;;;;;4915759;29;20111;-64
2023/03/19 04:58:43;;;;;;;79.00;13.77;;;;;;;;;;4913718;29;20485;-64
2023/03/19 05:01:09;;;;;;;61.63;13.95;;;;;;;;;;4925213;29;20111;-64
2023/03/19 05:04:14;;;;;;;75.30;14.48;;;;;;;;;;4912532;29;20052;-64
2023/03/19 05:06:41;;;;;;;72.90;15.05;;;;;;;;;;4921678;29;20498;-64
2023/03/19 05:09:08;;;;;;;162.15;20.45;;;;;;;;;;4918045;29;20390;-63
2023/03/19 05:11:34;;;;;;;99.32;16.33;;;;;;;;;;4936704;29;20048;-64
2023/03/19 05:14:04;;;;;;;74.95;14.70;;;;;;;;;;4919995;29;20143;-64
2023/03/19 05:16:44;;;;;;;68.18;14.45;;;;;;;;;;4917000;29;20048;-64
2023/03/19 05:19:10;;;;;;;72.78;14.30;;;;;;;;;;4924540;29;20557;-64
2023/03/19 05:21:37;;;;;;;107.82;15.73;;;;;;;;;;4924103;29;20048;-64
2023/03/19 05:24:03;;;;;;;100.47;16.23;;;;;;;;;;4940785;29;20040;-64
2023/03/19 05:26:33;;;;;;;55.88;14.38;;;;;;;;;;4937663;29;20052;-64
2023/03/19 05:29:18;;;;;;;61.10;13.23;;;;;;;;;;4922673;29;20477;-63
2023/03/19 05:31:57;;;;;;;66.32;13.93;;;;;;;;;;4920641;29;20107;-64
2023/03/19 05:34:23;;;;;;;89.53;15.35;;;;;;;;;;4924713;29;20421;-64
2023/03/19 05:36:50;;;;;;;59.90;14.30;;;;;;;;;;4925489;29;20059;-64
2023/03/19 05:39:18;;;;;;;83.93;14.93;;;;;;;;;;4924663;29;20056;-64
2023/03/19 05:41:45;;;;;;;116.68;17.55;;;;;;;;;;4924266;29;20047;-64
2023/03/19 05:44:16;;;;;;;46.92;12.18;;;;;;;;;;4920915;29;20577;-64
2023/03/19 05:47:01;;;;;;;73.43;14.25;;;;;;;;;;4925625;29;20059;-63
2023/03/19 05:49:32;;;;;;;69.22;14.68;;;;;;;;;;4925418;29;20044;-64
2023/03/19 05:51:59;;;;;;;58.83;13.43;;;;;;;;;;4924053;29;20048;-64
2023/03/19 05:54:25;;;;;;;102.70;15.82;;;;;;;;;;4923587;29;20151;-64
2023/03/19 05:57:09;;;;;;;133.55;17.48;;;;;;;;;;4921328;29;20519;-49
2023/03/19 05:59:55;;;;;;;85.22;14.88;;;;;;;;;;4923522;29;20074;-50
2023/03/19 06:02:34;;;;;;;47.13;12.60;;;;;;;;;;4924373;29;20501;-50
2023/03/19 06:05:26;;;;;;;75.35;14.02;;;;;;;;;;4886513;29;20092;-50
2023/03/19 06:07:57;;;;;;;75.45;13.13;;;;;;;;;;4883110;29;20053;-50
2023/03/19 06:10:36;;;;;;;48.28;12.38;;;;;;;;;;4880272;29;20157;-53
2023/03/19 06:13:08;;;;;;;71.55;13.98;;;;;;;;;;4885532;29;20443;-49
2023/03/19 06:15:37;;;;;;;90.72;15.13;;;;;;;;;;4884566;29;20068;-50
2023/03/19 06:18:11;;;;;;;91.53;15.00;;;;;;;;;;4883827;29;20051;-51
2023/03/19 06:20:37;;;;;;;77.43;13.95;;;;;;;;;;4881543;29;20084;-49
2023/03/19 06:23:04;;;;;;;72.10;13.75;;;;;;;;;;4884781;29;20451;-51
2023/03/19 06:25:30;;;;;;;113.03;16.10;;;;;;;;;;4884337;29;20079;-48
2023/03/19 06:27:57;;;;;;;78.80;15.23;;;;;;;;;;4854057;29;20080;-48
2023/03/19 06:30:28;;;;;;;63.13;13.18;;;;;;;;;;4883609;29;20620;-50
2023/03/19 06:32:57;;;;;;;50.00;13.30;;;;;;;;;;4884806;29;20135;-51
2023/03/19 06:35:26;;;;;;;64.90;14.48;;;;;;;;;;4881682;29;20045;-49
2023/03/19 06:37:53;;;;;;;60.70;15.07;;;;;;;;;;4887588;29;20780;-48
2023/03/19 06:40:19;;;;;;;82.70;16.15;;;;;;;;;;4878835;29;20064;-50
2023/03/19 06:42:46;;;;;;;80.35;16.50;;;;;;;;;;4913367;29;20519;-52
2023/03/19 06:45:15;;;;;;;102.50;16.50;;;;;;;;;;4921818;29;20056;-51
2023/03/19 06:47:42;;;;;;;65.45;14.98;;;;;;;;;;4924286;29;20055;-51
2023/03/19 06:50:09;;;;;;;74.85;15.15;;;;;;;;;;4921848;29;20122;-48
2023/03/19 06:52:36;;;;;;;55.42;14.82;;;;;;;;;;4924318;29;20044;-49
2023/03/19 06:55:04;;;;;;;49.55;13.75;;;;;;;;;;4923552;29;20485;-55
2023/03/19 06:57:30;;;;;;;102.07;17.33;;;;;;;;;;4920549;29;20039;-52
2023/03/19 06:59:57;;;;;;;62.55;15.65;;;;;;;;;;4926328;29;20143;-48
2023/03/19 07:02:23;;;;;;;60.92;14.80;;;;;;;;;;4922002;29;20123;-49
2023/03/19 07:04:51;;;;;;;70.18;15.20;;;;;;;;;;4924842;29;20046;-51
2023/03/19 07:07:17;;;;;;;69.97;15.50;;;;;;;;;;4924720;29;20073;-51
2023/03/19 07:09:44;;;;;;;76.95;15.23;;;;;;;;;;4925205;29;20054;-54
2023/03/19 07:12:10;;;;;;;97.90;17.38;;;;;;;;;;4921643;29;20074;-51
2023/03/19 07:14:37;;;;;;;160.98;21.17;;;;;;;;;;4929672;29;20391;-65
2023/03/19 07:17:03;;;;;;;86.22;17.05;;;;;;;;;;4918828;29;20067;-64
2023/03/19 07:19:30;;;;;;;104.40;18.00;;;;;;;;;;4924317;29;20095;-63
2023/03/19 07:21:56;;;;;;;87.53;16.88;;;;;;;;;;4923590;29;20035;-63
2023/03/19 07:24:23;;;;;;;73.70;15.23;;;;;;;;;;4924175;29;20409;-64
2023/03/19 07:26:50;;;;;;;116.28;16.45;;;;;;;;;;4918923;29;20052;-64
2023/03/19 07:29:16;;;;;;;77.25;15.15;;;;;;;;;;4911793;29;20040;-64
2023/03/19 07:31:43;;;;;;;82.00;16.48;;;;;;;;;;4924016;29;20135;-64
2023/03/19 07:34:10;;;;;;;88.95;17.08;;;;;;;;;;4922327;29;20542;-64
2023/03/19 07:36:37;;;;;;;73.63;16.42;;;;;;;;;;4922986;29;20040;-64
2023/03/19 07:39:03;;;;;;;108.18;17.88;;;;;;;;;;4922008;29;20078;-64
2023/03/19 07:41:30;;;;;;;87.03;16.55;;;;;;;;;;4920458;29;20178;-64
2023/03/19 07:43:56;;;;;;;82.65;16.88;;;;;;;;;;4923906;29;20071;-64
2023/03/19 07:46:23;;;;;;;56.78;14.70;;;;;;;;;;4923579;29;20048;-64
2023/03/19 07:48:50;;;;;;;60.35;15.30;;;;;;;;;;4922822;29;20044;-64
2023/03/19 07:51:16;;;;;;;93.88;16.20;;;;;;;;;;4924226;29;20048;-64
2023/03/19 07:53:42;;;;;;;120.90;18.55;;;;;;;;;;4921158;29;20069;-64
2023/03/19 07:56:10;;;;;;;68.00;14.77;;;;;;;;;;4923323;29;20497;-64
2023/03/19 07:58:36;;;;;;;59.80;13.43;;;;;;;;;;4919196;29;20047;-64
2023/03/19 08:01:03;;;;;;;75.97;14.75;;;;;;;;;;4918996;29;20152;-64
2023/03/19 08:03:29;;;;;;;65.55;13.18;;;;;;;;;;4919048;29;20031;-64
2023/03/19 08:05:56;;;;;;;68.50;13.35;;;;;;;;;;4921178;29;20044;-64
2023/03/19 08:08:22;;;;;;;71.28;14.20;;;;;;;;;;4924972;29;20051;-64
2023/03/19 08:10:49;;;;;;;67.45;13.55;;;;;;;;;;4919515;29;20119;-64
2023/03/19 08:13:16;;;;;;;105.72;16.17;;;;;;;;;;4916262;29;20083;-64
2023/03/19 08:15:42;;;;;;;201.02;22.60;;;;;;;;;;4915704;29;20126;-52
2023/03/19 08:18:09;;;;;;;103.88;15.77;;;;;;;;;;4916634;29;20540;-52
2023/03/19 08:20:35;;;;;;;103.57;16.45;;;;;;;;;;4924590;29;20059;-50
2023/03/19 08:23:02;;;;;;;77.38;15.68;;;;;;;;;;4918965;29;20127;-48
2023/03/19 08:25:31;;;;;;;68.63;14.02;;;;;;;;;;4920695;29;20052;-51
2023/03/19 08:27:59;;;;;;;73.80;13.80;;;;;;;;;;4921799;29;20044;-52
2023/03/19 08:30:25;;;;;;;70.43;13.38;;;;;;;;;;4922753;29;20069;-51
2023/03/19 08:32:52;;;;;;;59.00;13.85;;;;;;;;;;4925882;29;20557;-54
2023/03/19 08:35:19;;;;;;;88.22;15.63;;;;;;;;;;4918916;29;20060;-53
2023/03/19 08:37:45;;;;;;;62.75;13.18;;;;;;;;;;4922010;29;20036;-49
2023/03/19 08:40:12;;;;;;;77.95;17.13;;;;;;;;;;4921927;29;20039;-50
2023/03/19 08:42:40;;;;;;;92.65;15.70;;;;;;;;;;4917586;29;20126;-53
2023/03/19 08:45:11;;;;;;;105.47;16.45;;;;;;;;;;4923666;29;20052;-52
2023/03/19 08:47:37;;;;;;;64.85;13.70;;;;;;;;;;4923660;29;20055;-53
2023/03/19 08:50:04;;;;;;;119.47;17.13;;;;;;;;;;4922571;29;20047;-53
2023/03/19 08:52:30;;;;;;;94.70;15.20;;;;;;;;;;4922877;29;20055;-49
2023/03/19 08:54:57;;;;;;;58.13;13.88;;;;;;;;;;4922521;29;20032;-52
2023/03/19 08:57:23;;;;;;;116.05;17.10;;;;;;;;;;4919283;29;20036;-50
2023/03/19 08:59:51;;;;;;;66.65;15.00;;;;;;;;;;4914530;29;20044;-52
2023/03/19 09:02:18;;;;;;;65.80;14.10;;;;;;;;;;4916364;29;20044;-52
2023/03/19 09:04:44;;;;;;;177.30;21.77;;;;;;;;;;4919464;29;20051;-53
2023/03/19 09:07:12;;;;;;;85.03;16.30;;;;;;;;;;4914005;29;20054;-50
2023/03/19 09:09:39;;;;;;;72.70;15.45;;;;;;;;;;4921249;29;20043;-52
2023/03/19 09:12:06;;;;;;;88.15;16.95;;;;;;;;;;4916829;29;20393;-51
2023/03/19 09:14:33;;;;;;;57.45;13.43;;;;;;;;;;4917564;29;20064;-53
2023/03/19 09:16:59;;;;;;;46.90;13.13;;;;;;;;;;4920580;29;20051;-51
2023/03/19 09:19:26;;;;;;;89.05;16.48;;;;;;;;;;4915349;29;20119;-53
2023/03/19 09:21:52;;;;;;;70.75;14.18;;;;;;;;;;4915878;29;20064;-68
2023/03/19 09:24:19;;;;;;;77.78;15.43;;;;;;;;;;4912156;29;20050;-66
2023/03/19 09:26:45;;;;;;;109.57;17.45;;;;;;;;;;4919227;29;20044;-66
2023/03/19 09:29:12;;;;;;;64.57;14.68;;;;;;;;;;4922955;29;20062;-66
2023/03/19 09:31:39;;;;;;;66.75;14.73;;;;;;;;;;4919407;29;20063;-66
2023/03/19 09:34:06;;;;;;;79.45;15.45;;;;;;;;;;4921917;29;20127;-66
2023/03/19 09:36:32;;;;;;;53.42;14.15;;;;;;;;;;4920892;29;20592;-66
2023/03/19 09:38:58;;;;;;;41.40;12.05;;;;;;;;;;4914713;29;20049;-67
2023/03/19 09:41:34;;;;;;;77.05;14.02;;;;;;;;;;4914806;29;20044;-67
2023/03/19 09:44:03;;;;;;;73.35;13.75;;;;;;;;;;4913044;29;20044;-66
2023/03/19 09:46:33;;;;;;;65.20;14.15;;;;;;;;;;4920108;29;20058;-67
2023/03/19 09:49:03;;;;;;;86.80;16.02;;;;;;;;;;4915632;29;20043;-66
2023/03/19 09:51:34;;;;;;;68.53;14.90;;;;;;;;;;4920929;29;20055;-67
2023/03/19 09:54:06;;;;;;;72.88;14.85;;;;;;;;;;4920071;29;20501;-66
2023/03/19 09:56:32;;;;;;;72.53;14.20;;;;;;;;;;4921118;29;20048;-67
2023/03/19 09:58:59;;;;;;;48.00;12.77;;;;;;;;;;4923363;29;20042;-67
2023/03/19 10:01:32;;;;;;;83.70;15.35;;;;;;;;;;4926266;29;20524;-66
2023/03/19 10:04:19;;;;;;;56.95;13.43;;;;;;;;;;4926142;29;20046;-67
2023/03/19 10:06:46;;;;;;;125.07;18.02;;;;;;;;;;4923850;29;20450;-66
2023/03/19 10:09:12;;;;;;;88.82;16.33;;;;;;;;;;4924341;29;20054;-66
2023/03/19 10:11:51;;;;;;;89.75;16.08;;;;;;;;;;4925032;29;20050;-67
2023/03/19 10:14:32;;;;;;;90.15;15.02;;;;;;;;;;4919379;29;20387;-67
2023/03/19 10:17:00;;;;;;;92.25;16.02;;;;;;;;;;4925393;29;20036;-67
2023/03/19 10:19:40;;;;;;;102.20;14.43;;;;;;;;;;4922473;29;20032;-67
2023/03/19 10:22:11;;;;;;;140.88;16.02;;;;;;;;;;4923609;29;20445;-67
2023/03/19 10:24:40;;;;;;;85.70;14.05;;;;;;;;;;4925453;29;20048;-66
2023/03/19 10:27:13;;;;;;;110.60;14.43;;;;;;;;;;4921051;29;20055;-66
2023/03/19 10:29:40;;;;;;;294.63;25.02;;;;;;;;;;4913709;29;20036;-51
2023/03/19 10:32:20;;;;;;;125.85;16.70;;;;;;;;;;4910841;29;20032;-51
2023/03/19 10:34:52;;;;;;;73.38;12.50;;;;;;;;;;4917686;29;20086;-52
2023/03/19 10:37:24;;;;;;;92.45;13.20;;;;;;;;;;4915104;29;20506;-50
2023/03/19 10:39:51;;;;;;;59.22;11.90;;;;;;;;;;4919284;29;20044;-49
2023/03/19 10:42:24;;;;;;;142.38;18.10;;;;;;;;;;4920439;29;20454;-55
2023/03/19 10:44:51;;;;;;;;;;;;;;;;;;4921676;29;20095;-53
2023/03/19 10:47:18;;;;;;;61.53;11.38;;;;;;;;;;4922924;29;19934;-50
2023/03/19 10:49:45;;;;;;;81.00;14.13;;;;;;;;;;4920681;29;20098;-47
2023/03/19 10:52:21;;;;;;;84.15;12.82;;;;;;;;;;4913005;29;20071;-53
2023/03/19 10:54:53;;;;;;;61.28;11.43;;;;;;;;;;4913344;29;20158;-52
2023/03/19 10:57:23;;;;;;;101.75;14.00;;;;;;;;;;4916088;29;20059;-53
2023/03/19 10:59:50;;;;;;;75.57;12.35;;;;;;;;;;4925716;29;20044;-49
2023/03/19 11:02:22;;;;;;;114.13;14.48;;;;;;;;;;4914460;29;20103;-50
2023/03/19 11:05:05;;;;;;;91.57;13.52;;;;;;;;;;4911316;29;20047;-50
2023/03/19 11:07:32;;;;;;;127.97;15.05;;;;;;;;;;4916593;29;20516;-45
2023/03/19 11:09:58;;;;;;;113.85;13.57;;;;;;;;;;4923211;29;20046;-51
2023/03/19 11:12:32;;;;;;;182.25;17.30;;;;;;;;;;4920140;29;20071;-48
2023/03/19 11:15:01;;;;;;;58.80;10.90;;;;;;;;;;4920838;29;20054;-50
2023/03/19 11:17:38;;;;;;;98.88;11.80;;;;;;;;;;4921052;29;20067;-51
2023/03/19 11:20:26;;;;;;;52.60;10.02;;;;;;;;;;4923589;29;20177;-49
2023/03/19 11:22:53;;;;;;;56.47;10.55;;;;;;;;;;4921279;29;20042;-51
2023/03/19 11:25:25;;;;;;;55.97;10.55;;;;;;;;;;4927682;29;20511;-52
2023/03/19 11:28:05;;;;;;;104.00;13.43;;;;;;;;;;4919144;29;20098;-50
2023/03/19 11:30:50;;;;;;;73.03;13.43;;;;;;;;;;4923763;29;20043;-48
2023/03/19 11:33:22;;;;;;;95.72;12.48;;;;;;;;;;4915020;29;20048;-65
2023/03/19 11:36:02;;;;;;;44.33;9.07;;;;;;;;;;4925332;29;20040;-66
2023/03/19 11:38:41;;;;;;;42.67;9.18;;;;;;;;;;4924157;29;20051;-67
2023/03/19 11:41:15;;;;;;;66.72;10.25;;;;;;;;;;4918799;29;20036;-69
2023/03/19 11:44:00;;;;;;;128.65;14.18;;;;;;;;;;4919067;29;20568;-68
2023/03/19 11:46:36;;;;;;;45.97;12.00;;;;;;;;;;4920405;29;20045;-68
2023/03/19 11:49:17;;;;;;;100.20;11.77;;;;;;;;;;4924735;29;20063;-68
2023/03/19 11:51:50;;;;;;;70.38;11.02;;;;;;;;;;4921161;29;20047;-68
2023/03/19 11:54:16;;;;;;;;;;;;;;;;;;4923631;29;20059;-68
2023/03/19 11:56:54;;;;;;;44.85;9.43;;;;;;;;;;4923350;29;19922;-68
2023/03/19 11:59:27;;;;;;;299.85;24.52;;;;;;;;;;4915021;29;20051;-67
2023/03/19 12:01:53;;;;;;;97.25;12.00;;;;;;;;;;4925729;29;20123;-68
2023/03/19 12:04:37;;;;;;;174.27;27.33;;;;;;;;;;4916085;29;20044;-65
2023/03/19 12:07:29;;;;;;;118.15;21.65;;;;;;;;;;4916009;29;20040;-65
2023/03/19 12:10:01;;;;;;;94.90;16.10;;;;;;;;;;4919662;29;20071;-67
2023/03/19 12:12:31;;;;;;;139.32;19.27;;;;;;;;;;4922436;29;20051;-65
2023/03/19 12:15:32;;;;;;;88.00;12.52;;;;;;;;;;4923799;29;20095;-64
2023/03/19 12:18:09;;;;;;;530.47;34.55;;;;;;;;;;4863246;29;20562;-64
2023/03/19 12:20:39;;;;;;;180.13;16.83;;;;;;;;;;4846619;29;20059;-68
2023/03/19 12:23:11;;;;;;;82.15;10.60;;;;;;;;;;4864334;29;20037;-68
2023/03/19 12:25:46;;;;;;;106.35;13.48;;;;;;;;;;4860911;29;20069;-67
2023/03/19 12:28:16;;;;;;;201.20;17.42;;;;;;;;;;4861329;29;20550;-67
2023/03/19 12:31:02;;;;;;;127.80;15.38;;;;;;;;;;4858054;29;20526;-70
2023/03/19 12:33:34;;;;;;;303.95;22.88;;;;;;;;;;4858242;29;20077;-50
2023/03/19 12:36:03;;;;;;;358.73;28.48;;;;;;;;;;4858431;29;20067;-48
2023/03/19 12:38:50;;;;;;;110.22;12.15;;;;;;;;;;4863013;29;20137;-45
2023/03/19 12:41:22;;;;;;;82.40;11.10;;;;;;;;;;4861464;29;20500;-46
2023/03/19 12:43:57;;;;;;;92.00;12.25;;;;;;;;;;4861126;29;20125;-50
2023/03/19 12:46:27;;;;;;;79.72;10.93;;;;;;;;;;4865054;29;20057;-46
2023/03/19 12:48:58;;;;;;;70.15;11.90;;;;;;;;;;4863935;29;20626;-46
2023/03/19 12:51:34;;;;;;;81.10;14.10;;;;;;;;;;4876258;29;20103;-46
2023/03/19 12:54:22;;;;;;;182.10;96.57;;;;;;;;;;4920196;29;20126;-46
2023/03/19 12:57:00;;;;;;;49.15;13.07;;;;;;;;;;4923195;29;20058;-46
2023/03/19 12:59:30;;;;;;;135.25;15.75;;;;;;;;;;4917127;29;20040;-47
2023/03/19 13:02:01;;;;;;;73.78;15.65;;;;;;;;;;4922692;29;20035;-45
2023/03/19 13:04:34;;;;;;;152.02;22.35;;;;;;;;;;4916237;29;20540;-48
2023/03/19 13:07:07;;;;;;;54.90;9.77;;;;;;;;;;4919539;29;20044;-47
2023/03/19 13:09:47;;;;;;;200.18;22.45;;;;;;;;;;4920829;29;20055;-48
2023/03/19 13:12:21;;;;;;;213.63;23.30;;;;;;;;;;4917996;29;20080;-47
2023/03/19 13:14:51;;;;;;;50.33;13.20;;;;;;;;;;4919830;29;20043;-49
2023/03/19 13:17:27;;;;;;;84.55;11.38;;;;;;;;;;4920558;29;20524;-46
2023/03/19 13:19:55;;;;;;;68.78;10.57;;;;;;;;;;4918285;29;20054;-46
2023/03/19 13:22:23;;;;;;;123.47;15.15;;;;;;;;;;4921256;29;20130;-47
2023/03/19 13:24:51;;;;;;;67.25;11.50;;;;;;;;;;4916160;29;20366;-43
2023/03/19 13:27:25;;;;;;;115.93;13.52;;;;;;;;;;4920932;29;20127;-45
2023/03/19 13:30:00;;;;;;;76.53;11.40;;;;;;;;;;4918187;29;20059;-48
2023/03/19 13:32:40;;;;;;;163.73;63.28;;;;;;;;;;4926086;29;20048;-50
2023/03/19 13:35:33;;;;;;;866.22;457.80;;;;;;;;;;4921864;29;20036;-69
2023/03/19 13:38:01;;;;;;;79.37;23.13;;;;;;;;;;4917610;29;20420;-68
2023/03/19 13:40:37;;;;;;;574.33;318.13;;;;;;;;;;4923584;29;20054;-68
2023/03/19 13:43:03;;;;;;;435.58;211.88;;;;;;;;;;4925920;29;20040;-69
2023/03/19 13:45:33;;;;;;;301.25;133.63;;;;;;;;;;4920409;29;20040;-67
2023/03/19 13:48:18;;;;;;;278.00;155.95;;;;;;;;;;4927969;29;20051;-68
2023/03/19 13:50:54;;;;;;;225.73;106.57;;;;;;;;;;4924674;29;20047;-68
2023/03/19 13:53:31;;;;;;;470.98;260.00;;;;;;;;;;4921835;29;20116;-67
2023/03/19 13:55:58;;;;;;;622.25;430.83;;;;;;;;;;4926417;29;20044;-67
2023/03/19 14:01:30;;;;;;;144.13;30.00;;;;;;;;;;4918393;29;20040;-67
2023/03/19 14:03:58;;;;;;;173.50;39.55;;;;;;;;;;4921444;29;20040;-67
2023/03/19 14:06:31;;;;;;;185.80;76.93;;;;;;;;;;4915462;29;20044;-67
2023/03/19 14:08:58;;;;;;;134.85;32.40;;;;;;;;;;4922132;29;20040;-67
2023/03/19 14:11:28;;;;;;;146.13;92.03;;;;;;;;;;4909698;29;20043;-67
2023/03/19 14:13:55;;;;;;;187.75;25.23;;;;;;;;;;4922745;29;20112;-67
2023/03/19 14:16:24;;;;;;;59.08;15.93;;;;;;;;;;4922282;29;20043;-67
2023/03/19 14:18:55;;;;;;;84.03;11.52;;;;;;;;;;4917630;29;20044;-67
2023/03/19 14:21:41;;;;;;;204.65;20.77;;;;;;;;;;4919786;29;20048;-67
2023/03/19 14:24:20;;;;;;;247.88;52.90;;;;;;;;;;4919298;29;20044;-69
2023/03/19 14:27:17;;;;;;;51.60;9.15;;;;;;;;;;4924445;29;20043;-67
2023/03/19 14:29:44;;;;;;;131.15;14.65;;;;;;;;;;4918937;29;20055;-69
2023/03/19 14:32:15;;;;;;;54.63;9.20;;;;;;;;;;4916638;29;20401;-67
2023/03/19 14:34:42;;;;;;;66.78;12.50;;;;;;;;;;4924193;29;20764;-67